createdAt,value
2018-09-01T00:00:06.486Z,0
2018-09-01T00:01:06.740Z,0
2018-09-01T00:02:06.476Z,0
2018-09-01T00:03:06.723Z,0
2018-09-01T00:04:06.461Z,0
2018-09-01T00:05:06.212Z,0
2018-09-01T00:06:06.451Z,0
2018-09-01T00:07:06.442Z,0
2018-09-01T00:08:06.186Z,0
2018-09-01T00:09:06.437Z,0
2018-09-01T00:10:06.433Z,0
2018-09-01T00:11:06.841Z,0
2018-09-01T00:12:06.414Z,0
2018-09-01T00:13:06.660Z,0
2018-09-01T00:14:06.661Z,0
2018-09-01T00:15:06.143Z,0
2018-09-01T00:16:06.640Z,0
2018-09-01T00:17:06.382Z,0
2018-09-01T00:18:06.677Z,0
2018-09-01T00:19:06.625Z,0
2018-09-01T00:20:06.363Z,0
2018-09-01T00:21:06.108Z,0
2018-09-01T00:22:06.352Z,0
2018-09-01T00:23:06.345Z,0
2018-09-01T00:24:06.340Z,0
2018-09-01T00:25:06.340Z,0
2018-09-01T00:26:06.326Z,0
2018-09-01T00:27:06.070Z,0
2018-09-01T00:28:06.315Z,0
2018-09-01T00:29:06.326Z,0
2018-09-01T00:30:06.561Z,0
2018-09-01T00:31:06.301Z,0
2018-09-01T00:32:06.291Z,0
2018-09-01T00:33:06.283Z,0
2018-09-01T00:34:06.540Z,0
2018-09-01T00:35:06.277Z,0
2018-09-01T00:36:06.015Z,0
2018-09-01T00:37:06.258Z,0
2018-09-01T00:38:06.252Z,0
2018-09-01T00:39:06.246Z,0
2018-09-01T00:40:05.986Z,0
2018-09-01T00:41:05.987Z,0
2018-09-01T00:42:06.226Z,0
2018-09-01T00:43:06.475Z,0
2018-09-01T00:44:06.484Z,0
2018-09-01T00:45:06.206Z,0
2018-09-01T00:46:06.202Z,0
2018-09-01T00:47:06.452Z,0
2018-09-01T00:48:06.188Z,0
2018-09-01T00:49:06.187Z,0
2018-09-01T00:50:06.451Z,0
2018-09-01T00:51:06.176Z,0
2018-09-01T00:52:06.165Z,0
2018-09-01T00:53:06.161Z,0
2018-09-01T00:54:06.409Z,0
2018-09-01T00:55:06.161Z,0
2018-09-01T00:56:06.392Z,0
2018-09-01T00:57:06.136Z,0
2018-09-01T00:58:06.125Z,0
2018-09-01T00:59:06.122Z,0
2018-09-01T01:00:06.369Z,0
2018-09-01T01:01:06.108Z,0
2018-09-01T01:02:06.603Z,0
2018-09-01T01:03:06.098Z,0
2018-09-01T01:04:06.089Z,0
2018-09-01T01:05:06.093Z,0
2018-09-01T01:06:06.081Z,0
2018-09-01T01:07:06.076Z,0
2018-09-01T01:08:06.311Z,0
2018-09-01T01:09:06.055Z,0
2018-09-01T01:10:06.302Z,0
2018-09-01T01:11:06.298Z,0
2018-09-01T01:12:06.292Z,0
2018-09-01T01:13:06.034Z,0
2018-09-01T01:14:06.278Z,0
2018-09-01T01:15:05.769Z,0
2018-09-01T01:16:06.262Z,0
2018-09-01T01:17:06.004Z,0
2018-09-01T01:18:05.997Z,0
2018-09-01T01:19:06.262Z,0
2018-09-01T01:20:05.986Z,0
2018-09-01T01:21:05.979Z,0
2018-09-01T01:22:05.987Z,0
2018-09-01T01:23:05.970Z,0
2018-09-01T01:24:06.011Z,0
2018-09-01T01:25:06.212Z,0
2018-09-01T01:26:06.202Z,0
2018-09-01T01:27:06.195Z,0
2018-09-01T01:28:05.948Z,0
2018-09-01T01:29:05.928Z,0
2018-09-01T01:30:05.922Z,0
2018-09-01T01:31:06.178Z,0
2018-09-01T01:32:05.912Z,0
2018-09-01T01:33:06.154Z,0
2018-09-01T01:34:06.149Z,0
2018-09-01T01:35:05.386Z,0
2018-09-01T01:36:05.632Z,0
2018-09-01T01:37:05.880Z,0
2018-09-01T01:38:05.870Z,0
2018-09-01T01:39:05.868Z,0
2018-09-01T01:40:05.860Z,0
2018-09-01T01:41:06.104Z,0
2018-09-01T01:42:06.096Z,0
2018-09-01T01:43:05.839Z,0
2018-09-01T01:44:06.088Z,0
2018-09-01T01:45:06.080Z,0
2018-09-01T01:46:05.823Z,0
2018-09-01T01:47:06.062Z,0
2018-09-01T01:48:06.064Z,0
2018-09-01T01:49:05.797Z,0
2018-09-01T01:50:05.794Z,0
2018-09-01T01:51:06.037Z,0
2018-09-01T01:52:06.035Z,0
2018-09-01T01:53:05.521Z,0
2018-09-01T01:54:05.766Z,0
2018-09-01T01:55:06.018Z,0
2018-09-01T01:56:06.028Z,0
2018-09-01T01:57:05.752Z,0
2018-09-01T01:58:05.992Z,0
2018-09-01T01:59:05.983Z,0
2018-09-01T02:00:05.977Z,0
2018-09-01T02:01:05.721Z,0
2018-09-01T02:02:05.457Z,0
2018-09-01T02:03:05.971Z,0
2018-09-01T02:04:06.197Z,0
2018-09-01T02:05:05.689Z,0
2018-09-01T02:06:05.680Z,0
2018-09-01T02:07:05.934Z,0
2018-09-01T02:08:05.917Z,0
2018-09-01T02:09:05.911Z,0
2018-09-01T02:10:05.909Z,0
2018-09-01T02:11:05.645Z,0
2018-09-01T02:12:05.894Z,0
2018-09-01T02:13:05.882Z,0
2018-09-01T02:14:05.880Z,0
2018-09-01T02:15:05.623Z,0
2018-09-01T02:16:05.860Z,0
2018-09-01T02:17:05.866Z,0
2018-09-01T02:18:05.848Z,0
2018-09-01T02:19:05.845Z,0
2018-09-01T02:20:05.338Z,0
2018-09-01T02:21:05.824Z,0
2018-09-01T02:22:05.824Z,0
2018-09-01T02:23:05.808Z,0
2018-09-01T02:24:05.806Z,0
2018-09-01T02:25:05.542Z,0
2018-09-01T02:26:05.797Z,0
2018-09-01T02:27:05.782Z,0
2018-09-01T02:28:05.776Z,0
2018-09-01T02:29:05.778Z,0
2018-09-01T02:30:05.788Z,0
2018-09-01T02:31:05.756Z,0
2018-09-01T02:32:05.499Z,0
2018-09-01T02:33:05.738Z,0
2018-09-01T02:34:05.731Z,0
2018-09-01T02:35:05.722Z,0
2018-09-01T02:36:05.461Z,0
2018-09-01T02:37:05.708Z,0
2018-09-01T02:38:05.737Z,0
2018-09-01T02:39:05.690Z,0
2018-09-01T02:40:05.685Z,0
2018-09-01T02:41:05.674Z,0
2018-09-01T02:42:05.676Z,0
2018-09-01T02:43:05.660Z,0
2018-09-01T02:44:05.656Z,0
2018-09-01T02:45:05.645Z,0
2018-09-01T02:46:05.135Z,0
2018-09-01T02:47:05.629Z,0
2018-09-01T02:48:05.627Z,0
2018-09-01T02:49:05.617Z,0
2018-09-01T02:50:05.379Z,0
2018-09-01T02:51:05.600Z,0
2018-09-01T02:52:05.604Z,0
2018-09-01T02:53:05.338Z,0
2018-09-01T02:54:05.578Z,0
2018-09-01T02:55:05.318Z,0
2018-09-01T02:56:05.561Z,0
2018-09-01T02:57:05.550Z,0
2018-09-01T02:58:05.550Z,0
2018-09-01T02:59:05.284Z,0
2018-09-01T03:00:05.023Z,0
2018-09-01T03:01:05.523Z,0
2018-09-01T03:02:05.540Z,0
2018-09-01T03:03:05.508Z,0
2018-09-01T03:04:05.495Z,0
2018-09-01T03:05:05.492Z,0
2018-09-01T03:06:05.730Z,0
2018-09-01T03:07:05.224Z,0
2018-09-01T03:08:05.210Z,0
2018-09-01T03:09:05.460Z,0
2018-09-01T03:10:05.452Z,0
2018-09-01T03:11:05.486Z,0
2018-09-01T03:12:05.441Z,0
2018-09-01T03:13:05.431Z,0
2018-09-01T03:14:05.414Z,0
2018-09-01T03:15:05.417Z,0
2018-09-01T03:16:05.156Z,0
2018-09-01T03:17:05.391Z,0
2018-09-01T03:18:05.389Z,0
2018-09-01T03:19:05.376Z,0
2018-09-01T03:20:05.370Z,0
2018-09-01T03:21:05.108Z,0
2018-09-01T03:22:05.352Z,0
2018-09-01T03:23:05.348Z,0
2018-09-01T03:24:05.336Z,0
2018-09-01T03:25:05.080Z,0
2018-09-01T03:26:05.316Z,0
2018-09-01T03:27:05.611Z,0
2018-09-01T03:28:05.303Z,0
2018-09-01T03:29:05.047Z,0
2018-09-01T03:30:04.785Z,0
2018-09-01T03:31:05.030Z,0
2018-09-01T03:32:05.292Z,0
2018-09-01T03:33:05.015Z,0
2018-09-01T03:34:05.263Z,0
2018-09-01T03:35:05.009Z,0
2018-09-01T03:36:05.236Z,0
2018-09-01T03:37:04.728Z,0
2018-09-01T03:38:05.220Z,0
2018-09-01T03:39:05.219Z,0
2018-09-01T03:40:04.967Z,4
2018-09-01T03:41:05.201Z,4
2018-09-01T03:42:05.194Z,4
2018-09-01T03:43:04.676Z,0
2018-09-01T03:44:04.920Z,4
2018-09-01T03:45:04.671Z,4
2018-09-01T03:46:04.656Z,8
2018-09-01T03:47:05.147Z,4
2018-09-01T03:48:04.941Z,8
2018-09-01T03:49:04.881Z,8
2018-09-01T03:50:05.132Z,8
2018-09-01T03:51:05.127Z,12
2018-09-01T03:52:05.123Z,12
2018-09-01T03:53:04.600Z,16
2018-09-01T03:54:05.098Z,16
2018-09-01T03:55:05.095Z,20
2018-09-01T03:56:04.831Z,24
2018-09-01T03:57:05.065Z,32
2018-09-01T03:58:04.806Z,36
2018-09-01T03:59:05.047Z,40
2018-09-01T04:00:04.795Z,48
2018-09-01T04:01:05.066Z,56
2018-09-01T04:02:04.519Z,60
2018-09-01T04:03:05.019Z,72
2018-09-01T04:04:05.014Z,84
2018-09-01T04:05:05.010Z,92
2018-09-01T04:06:04.989Z,108
2018-09-01T04:07:04.981Z,120
2018-09-01T04:08:04.722Z,136
2018-09-01T04:09:05.221Z,152
2018-09-01T04:10:04.969Z,168
2018-09-01T04:11:04.947Z,188
2018-09-01T04:12:04.938Z,216
2018-09-01T04:13:04.427Z,240
2018-09-01T04:14:04.922Z,272
2018-09-01T04:15:04.931Z,300
2018-09-01T04:16:04.905Z,324
2018-09-01T04:17:04.899Z,352
2018-09-01T04:18:04.900Z,384
2018-09-01T04:19:04.877Z,420
2018-09-01T04:20:04.622Z,460
2018-09-01T04:21:04.861Z,508
2018-09-01T04:22:04.353Z,556
2018-09-01T04:23:04.599Z,612
2018-09-01T04:24:04.851Z,668
2018-09-01T04:25:04.596Z,724
2018-09-01T04:26:04.838Z,780
2018-09-01T04:27:04.820Z,844
2018-09-01T04:28:04.557Z,908
2018-09-01T04:29:04.802Z,972
2018-09-01T04:30:04.540Z,1032
2018-09-01T04:31:04.803Z,1096
2018-09-01T04:32:05.174Z,1160
2018-09-01T04:33:04.510Z,1240
2018-09-01T04:34:04.756Z,1308
2018-09-01T04:35:04.757Z,1388
2018-09-01T04:36:04.750Z,1476
2018-09-01T04:37:04.231Z,1568
2018-09-01T04:38:04.227Z,1672
2018-09-01T04:39:04.213Z,1776
2018-09-01T04:40:04.702Z,1864
2018-09-01T04:41:04.704Z,1944
2018-09-01T04:42:04.184Z,2032
2018-09-01T04:43:04.678Z,2120
2018-09-01T04:44:04.424Z,2212
2018-09-01T04:45:04.667Z,2276
2018-09-01T04:46:04.661Z,2320
2018-09-01T04:47:04.492Z,2340
2018-09-01T04:48:04.387Z,2356
2018-09-01T04:49:04.127Z,2284
2018-09-01T04:50:04.375Z,2436
2018-09-01T04:51:04.112Z,2656
2018-09-01T04:52:04.607Z,2816
2018-09-01T04:53:04.347Z,2964
2018-09-01T04:54:04.591Z,3104
2018-09-01T04:55:04.354Z,3268
2018-09-01T04:56:04.580Z,3380
2018-09-01T04:57:04.587Z,3444
2018-09-01T04:58:04.563Z,3520
2018-09-01T04:59:04.308Z,3788
2018-09-01T05:00:04.314Z,4108
2018-09-01T05:01:04.850Z,4344
2018-09-01T05:02:04.031Z,4420
2018-09-01T05:03:04.029Z,4448
2018-09-01T05:04:04.278Z,4456
2018-09-01T05:05:04.521Z,4424
2018-09-01T05:06:04.509Z,4024
2018-09-01T05:07:04.257Z,3988
2018-09-01T05:08:04.513Z,4176
2018-09-01T05:09:04.507Z,4792
2018-09-01T05:10:04.237Z,4640
2018-09-01T05:11:04.484Z,5180
2018-09-01T05:12:04.486Z,5328
2018-09-01T05:13:04.214Z,5696
2018-09-01T05:14:03.960Z,6112
2018-09-01T05:15:04.465Z,6820
2018-09-01T05:16:04.451Z,6884
2018-09-01T05:17:04.199Z,6804
2018-09-01T05:18:04.196Z,7440
2018-09-01T05:19:04.482Z,7888
2018-09-01T05:20:04.179Z,7972
2018-09-01T05:21:03.923Z,8164
2018-09-01T05:22:04.169Z,8696
2018-09-01T05:23:04.163Z,8340
2018-09-01T05:24:04.468Z,7756
2018-09-01T05:25:04.409Z,7964
2018-09-01T05:26:04.157Z,8664
2018-09-01T05:27:04.146Z,8656
2018-09-01T05:28:04.145Z,9808
2018-09-01T05:29:04.139Z,9704
2018-09-01T05:30:04.387Z,9532
2018-09-01T05:31:04.387Z,9060
2018-09-01T05:32:04.131Z,9888
2018-09-01T05:33:03.875Z,10532
2018-09-01T05:34:04.129Z,10620
2018-09-01T05:35:04.375Z,10760
2018-09-01T05:36:04.117Z,10456
2018-09-01T05:37:04.120Z,11124
2018-09-01T05:38:04.119Z,11840
2018-09-01T05:39:03.856Z,12168
2018-09-01T05:40:04.359Z,12696
2018-09-01T05:41:04.103Z,12816
2018-09-01T05:42:04.616Z,12756
2018-09-01T05:43:04.358Z,13588
2018-09-01T05:44:04.098Z,14656
2018-09-01T05:45:04.103Z,14624
2018-09-01T05:46:04.100Z,14880
2018-09-01T05:47:04.350Z,15136
2018-09-01T05:48:04.344Z,15264
2018-09-01T05:49:04.341Z,15360
2018-09-01T05:50:04.093Z,15360
2018-09-01T05:51:04.351Z,15776
2018-09-01T05:52:04.342Z,15072
2018-09-01T05:53:04.091Z,15424
2018-09-01T05:54:04.346Z,15520
2018-09-01T05:55:03.835Z,15744
2018-09-01T05:56:04.095Z,16192
2018-09-01T05:57:04.101Z,16352
2018-09-01T05:58:04.097Z,16992
2018-09-01T05:59:04.354Z,17568
2018-09-01T06:00:04.095Z,18240
2018-09-01T06:01:04.360Z,18688
2018-09-01T06:02:03.842Z,18624
2018-09-01T06:03:04.357Z,19072
2018-09-01T06:04:04.364Z,19776
2018-09-01T06:05:04.102Z,20288
2018-09-01T06:06:04.719Z,19264
2018-09-01T06:07:04.109Z,18464
2018-09-01T06:08:04.107Z,20096
2018-09-01T06:09:04.367Z,21248
2018-09-01T06:10:04.371Z,20736
2018-09-01T06:11:04.116Z,20032
2018-09-01T06:12:04.379Z,19936
2018-09-01T06:13:03.873Z,19776
2018-09-01T06:14:04.433Z,19616
2018-09-01T06:15:04.135Z,19712
2018-09-01T06:16:04.141Z,19936
2018-09-01T06:17:04.398Z,19968
2018-09-01T06:18:04.497Z,19456
2018-09-01T06:19:04.168Z,20992
2018-09-01T06:20:03.904Z,20864
2018-09-01T06:21:03.911Z,21056
2018-09-01T06:22:03.664Z,21888
2018-09-01T06:23:04.173Z,22432
2018-09-01T06:24:04.456Z,25088
2018-09-01T06:25:04.469Z,28672
2018-09-01T06:26:04.191Z,30816
2018-09-01T06:27:04.451Z,35744
2018-09-01T06:28:04.456Z,40928
2018-09-01T06:29:04.466Z,41088
2018-09-01T06:30:04.303Z,36512
2018-09-01T06:31:03.970Z,29792
2018-09-01T06:32:04.243Z,23328
2018-09-01T06:33:04.485Z,21824
2018-09-01T06:34:04.497Z,26976
2018-09-01T06:35:04.255Z,31648
2018-09-01T06:36:04.259Z,37472
2018-09-01T06:37:04.536Z,45312
2018-09-01T06:38:04.601Z,51936
2018-09-01T06:39:04.285Z,52480
2018-09-01T06:40:04.290Z,51232
2018-09-01T06:41:04.299Z,47872
2018-09-01T06:42:04.560Z,42112
2018-09-01T06:43:04.216Z,35200
2018-09-01T06:44:04.319Z,28896
2018-09-01T06:45:04.843Z,26496
2018-09-01T06:46:04.334Z,27520
2018-09-01T06:47:04.092Z,29376
2018-09-01T06:48:04.127Z,31040
2018-09-01T06:49:04.616Z,35680
2018-09-01T06:50:04.119Z,34432
2018-09-01T06:51:04.124Z,31808
2018-09-01T06:52:04.391Z,29504
2018-09-01T06:53:04.648Z,26688
2018-09-01T06:54:04.203Z,26336
2018-09-01T06:55:04.419Z,26560
2018-09-01T06:56:04.424Z,27008
2018-09-01T06:57:04.684Z,27008
2018-09-01T06:58:04.438Z,27008
2018-09-01T06:59:04.699Z,27904
2018-09-01T07:00:04.718Z,29120
2018-09-01T07:01:04.467Z,30336
2018-09-01T07:02:04.732Z,31872
2018-09-01T07:03:04.234Z,32992
2018-09-01T07:04:04.496Z,32288
2018-09-01T07:05:04.001Z,33088
2018-09-01T07:06:04.771Z,36544
2018-09-01T07:07:04.527Z,37728
2018-09-01T07:08:04.794Z,36352
2018-09-01T07:09:04.542Z,36512
2018-09-01T07:10:04.554Z,36064
2018-09-01T07:11:04.814Z,36640
2018-09-01T07:12:04.578Z,36704
2018-09-01T07:13:04.579Z,36608
2018-09-01T07:14:04.837Z,35680
2018-09-01T07:15:04.857Z,34912
2018-09-01T07:16:05.114Z,35680
2018-09-01T07:17:04.873Z,36832
2018-09-01T07:18:04.884Z,35616
2018-09-01T07:19:04.898Z,36000
2018-09-01T07:20:04.650Z,42240
2018-09-01T07:21:04.409Z,45152
2018-09-01T07:22:04.423Z,40864
2018-09-01T07:23:04.426Z,37120
2018-09-01T07:24:04.946Z,40256
2018-09-01T07:25:04.460Z,45056
2018-09-01T07:26:04.457Z,43968
2018-09-01T07:27:04.719Z,40128
2018-09-01T07:28:04.736Z,41440
2018-09-01T07:29:04.745Z,45024
2018-09-01T07:30:04.972Z,43904
2018-09-01T07:31:06.591Z,40480
2018-09-01T07:32:04.773Z,39168
2018-09-01T07:33:04.782Z,41312
2018-09-01T07:34:04.796Z,44704
2018-09-01T07:35:04.803Z,46816
2018-09-01T07:36:05.118Z,49504
2018-09-01T07:37:05.081Z,48192
2018-09-01T07:38:05.089Z,42528
2018-09-01T07:39:04.844Z,41632
2018-09-01T07:40:04.860Z,44320
2018-09-01T07:41:04.619Z,44768
2018-09-01T07:42:04.876Z,44096
2018-09-01T07:43:05.138Z,44000
2018-09-01T07:44:04.644Z,44128
2018-09-01T07:45:04.672Z,44800
2018-09-01T07:46:04.663Z,46176
2018-09-01T07:47:05.184Z,48544
2018-09-01T07:48:05.185Z,47456
2018-09-01T07:49:05.199Z,43616
2018-09-01T07:50:05.224Z,41376
2018-09-01T07:51:04.973Z,44832
2018-09-01T07:52:04.978Z,43392
2018-09-01T07:53:05.237Z,41088
2018-09-01T07:54:05.246Z,42336
2018-09-01T07:55:05.006Z,51104
2018-09-01T07:56:05.469Z,56128
2018-09-01T07:57:05.301Z,53280
2018-09-01T07:58:05.036Z,46272
2018-09-01T07:59:05.298Z,42208
2018-09-01T08:00:05.305Z,41856
2018-09-01T08:01:04.817Z,43296
2018-09-01T08:02:05.071Z,47136
2018-09-01T08:03:05.336Z,47808
2018-09-01T08:04:05.091Z,45024
2018-09-01T08:05:05.114Z,42688
2018-09-01T08:06:05.368Z,43776
2018-09-01T08:07:05.376Z,45120
2018-09-01T08:08:05.404Z,44224
2018-09-01T08:09:05.392Z,44416
2018-09-01T08:10:05.398Z,45472
2018-09-01T08:11:05.414Z,45056
2018-09-01T08:12:05.167Z,47392
2018-09-01T08:13:05.429Z,50528
2018-09-01T08:14:05.934Z,50656
2018-09-01T08:15:05.199Z,46464
2018-09-01T08:16:05.459Z,45504
2018-09-01T08:17:05.466Z,47808
2018-09-01T08:18:05.721Z,48800
2018-09-01T08:19:05.494Z,48704
2018-09-01T08:20:05.492Z,46688
2018-09-01T08:21:05.504Z,44480
2018-09-01T08:22:05.514Z,40608
2018-09-01T08:23:05.523Z,24448
2018-09-01T08:24:05.527Z,9264
2018-09-01T08:25:05.539Z,7664
2018-09-01T08:26:05.725Z,7560
2018-09-01T08:27:05.563Z,7520
2018-09-01T08:28:05.557Z,7488
2018-09-01T08:29:05.317Z,7464
2018-09-01T08:30:05.320Z,7424
2018-09-01T08:31:05.326Z,7380
2018-09-01T08:32:05.588Z,7364
2018-09-01T08:33:05.591Z,7380
2018-09-01T08:34:05.695Z,7444
2018-09-01T08:35:05.348Z,7504
2018-09-01T08:36:05.605Z,7484
2018-09-01T08:37:05.613Z,7588
2018-09-01T08:38:04.860Z,7532
2018-09-01T08:39:05.619Z,7552
2018-09-01T08:40:05.671Z,7528
2018-09-01T08:41:05.629Z,7536
2018-09-01T08:42:05.386Z,7492
2018-09-01T08:43:05.640Z,7528
2018-09-01T08:44:05.641Z,7620
2018-09-01T08:45:05.390Z,7512
2018-09-01T08:46:05.640Z,7668
2018-09-01T08:47:05.641Z,7756
2018-09-01T08:48:05.653Z,7844
2018-09-01T08:49:05.652Z,7872
2018-09-01T08:50:05.651Z,8252
2018-09-01T08:51:05.651Z,8652
2018-09-01T08:52:05.656Z,8456
2018-09-01T08:53:05.401Z,8220
2018-09-01T08:54:05.544Z,8400
2018-09-01T08:55:05.661Z,8792
2018-09-01T08:56:05.658Z,9060
2018-09-01T08:57:05.673Z,9148
2018-09-01T08:58:05.655Z,9308
2018-09-01T08:59:05.659Z,9588
2018-09-01T09:00:05.408Z,9660
2018-09-01T09:03:05.660Z,9700
2018-09-01T09:04:05.662Z,9932
2018-09-01T09:05:05.415Z,9952
2018-09-01T09:06:05.667Z,9960
2018-09-01T09:07:05.668Z,9800
2018-09-01T09:08:05.669Z,9832
2018-09-01T09:09:05.663Z,10256
2018-09-01T09:10:04.909Z,10368
2018-09-01T09:11:05.671Z,10940
2018-09-01T09:12:05.160Z,10928
2018-09-01T09:13:05.663Z,11300
2018-09-01T09:14:05.409Z,12096
2018-09-01T09:28:05.919Z,9096
2018-09-01T09:29:05.414Z,9660
2018-09-01T09:30:05.671Z,9824
2018-09-01T09:31:05.674Z,10192
2018-09-01T09:32:05.674Z,10540
2018-09-01T09:33:07.094Z,10916
2018-09-01T09:34:05.668Z,11268
2018-09-01T09:35:05.670Z,11296
2018-09-01T09:36:05.669Z,10952
2018-09-01T09:37:05.669Z,10236
2018-09-01T09:38:05.665Z,9744
2018-09-01T09:39:05.670Z,9308
2018-09-01T09:40:05.676Z,9144
2018-09-01T09:41:05.670Z,9408
2018-09-01T09:42:05.682Z,9388
2018-09-01T09:43:05.165Z,9204
2018-09-01T09:44:05.676Z,9304
2018-09-01T09:45:05.667Z,9384
2018-09-01T09:46:05.716Z,9500
2018-09-01T09:47:05.672Z,9708
2018-09-01T09:48:05.416Z,9996
2018-09-01T09:49:05.683Z,9948
2018-09-01T09:50:11.937Z,9380
2018-09-01T09:51:18.404Z,8948
2018-09-01T09:52:05.674Z,9304
2018-09-01T10:09:05.928Z,8320
2018-09-01T10:10:05.423Z,8452
2018-09-01T10:11:05.947Z,8360
2018-09-01T10:12:05.685Z,8436
2018-09-01T10:13:05.423Z,8344
2018-09-01T10:14:05.673Z,8576
2018-09-01T10:15:05.677Z,8516
2018-09-01T10:16:05.972Z,8388
2018-09-01T10:17:05.672Z,8252
2018-09-01T10:18:18.413Z,8184
2018-09-01T10:19:05.685Z,8556
2018-09-01T10:20:05.659Z,8760
2018-09-01T10:21:05.427Z,9396
2018-09-01T10:22:05.426Z,9756
2018-09-01T10:23:05.426Z,10192
2018-09-01T10:24:05.421Z,10636
2018-09-01T10:25:05.674Z,11164
2018-09-01T10:26:05.672Z,11688
2018-09-01T10:27:06.074Z,11932
2018-09-01T10:28:05.171Z,12580
2018-09-01T10:29:05.674Z,12548
2018-09-01T10:30:05.423Z,13128
2018-09-01T10:31:05.678Z,13000
2018-09-01T10:32:05.419Z,13324
2018-09-01T10:33:05.716Z,13016
2018-09-01T10:34:05.174Z,12916
2018-09-01T10:35:05.424Z,12956
2018-09-01T10:36:05.674Z,12988
2018-09-01T10:37:05.672Z,13164
2018-09-01T10:38:05.684Z,13336
2018-09-01T10:39:05.680Z,12988
2018-09-01T10:40:05.422Z,12764
2018-09-01T10:41:05.672Z,12324
2018-09-01T10:42:05.672Z,12236
2018-09-01T10:43:05.678Z,11944
2018-09-01T11:35:10.995Z,12772
2018-09-01T11:48:05.725Z,13636
2018-09-01T11:49:05.716Z,13780
2018-09-01T11:50:05.583Z,14300
2018-09-01T11:51:05.722Z,14960
2018-09-01T12:03:05.739Z,19264
2018-09-01T12:04:05.921Z,19584
2018-09-01T12:05:05.756Z,19968
2018-09-01T12:06:05.740Z,20128
2018-09-01T12:27:06.037Z,18848
2018-09-01T12:28:05.851Z,18720
2018-09-01T12:30:05.803Z,18176
2018-09-01T12:31:05.803Z,17856
2018-09-01T12:32:05.803Z,17536
2018-09-01T12:33:05.803Z,17408
2018-09-01T12:34:05.810Z,17376
2018-09-01T12:35:05.810Z,17440
2018-09-01T12:36:05.811Z,17568
2018-09-01T12:37:05.809Z,17504
2018-09-01T12:38:05.564Z,17408
2018-09-01T12:39:05.820Z,17312
2018-09-01T12:40:05.576Z,17280
2018-09-01T12:41:05.325Z,17472
2018-09-01T12:42:05.458Z,17568
2018-09-01T12:43:05.578Z,17568
2018-09-01T12:44:05.831Z,17568
2018-09-01T12:45:05.847Z,17600
2018-09-01T12:46:05.841Z,17632
2018-09-01T12:47:05.841Z,17760
2018-09-01T12:48:05.848Z,17856
2018-09-01T12:49:05.852Z,17920
2018-09-01T12:50:05.854Z,17952
2018-09-01T12:51:05.599Z,17856
2018-09-01T12:53:06.107Z,17920
2018-09-01T12:54:05.358Z,17920
2018-09-01T12:55:05.361Z,17856
2018-09-01T12:56:05.626Z,17792
2018-09-01T12:57:05.620Z,17696
2018-09-01T12:58:05.881Z,17536
2018-09-01T12:59:05.625Z,17344
2018-09-01T13:00:05.631Z,17248
2018-09-01T13:01:05.886Z,17216
2018-09-01T13:02:05.890Z,17152
2018-09-01T13:03:05.889Z,17024
2018-09-01T13:04:05.890Z,16928
2018-09-01T13:05:05.641Z,16832
2018-09-01T13:06:05.899Z,16768
2018-09-01T13:07:05.911Z,16672
2018-09-01T13:08:06.356Z,16608
2018-09-01T13:09:05.654Z,16640
2018-09-01T13:10:05.657Z,16576
2018-09-01T13:11:05.657Z,16480
2018-09-01T13:12:05.671Z,16416
2018-09-01T13:13:05.667Z,16384
2018-09-01T13:14:05.669Z,16288
2018-09-01T13:15:05.928Z,16224
2018-09-01T13:16:05.934Z,16032
2018-09-01T13:17:05.931Z,15968
2018-09-01T13:18:05.943Z,15872
2018-09-01T13:19:05.941Z,15808
2018-09-01T13:20:05.938Z,15552
2018-09-01T13:21:05.942Z,15416
2018-09-01T13:22:08.437Z,15368
2018-09-01T13:23:08.498Z,15280
2018-09-01T13:24:20.624Z,15148
2018-09-01T13:25:05.702Z,15136
2018-09-01T13:26:05.955Z,15088
2018-09-01T13:27:05.704Z,15048
2018-09-01T13:28:05.709Z,14968
2018-09-01T13:29:06.212Z,14972
2018-09-01T13:30:05.211Z,16992
2018-09-01T13:31:05.712Z,16992
2018-09-01T13:32:05.970Z,16928
2018-09-01T13:33:05.969Z,16832
2018-09-01T13:34:05.976Z,16736
2018-09-01T13:35:05.980Z,16576
2018-09-01T13:38:05.987Z,16288
2018-09-01T13:39:06.035Z,16128
2018-09-01T13:51:05.770Z,15196
2018-09-01T13:52:05.769Z,15048
2018-09-01T13:53:05.771Z,14916
2018-09-01T13:54:06.025Z,14808
2018-09-01T13:55:06.032Z,14532
2018-09-01T13:56:06.029Z,14360
2018-09-01T13:57:06.030Z,14240
2018-09-01T13:58:05.785Z,14092
2018-09-01T13:59:06.037Z,13920
2018-09-01T14:00:05.535Z,13748
2018-09-01T14:01:06.040Z,13680
2018-09-01T14:02:06.042Z,13636
2018-09-01T14:03:06.047Z,13596
2018-09-01T14:04:06.058Z,13616
2018-09-01T14:05:05.797Z,13588
2018-09-01T14:06:05.551Z,13540
2018-09-01T14:07:06.056Z,13496
2018-09-01T14:08:06.064Z,13456
2018-09-01T14:09:05.807Z,13448
2018-09-01T14:10:06.060Z,13360
2018-09-01T14:11:06.070Z,13312
2018-09-01T14:12:06.061Z,13284
2018-09-01T14:13:05.822Z,13300
2018-09-01T14:15:06.079Z,13252
2018-09-01T14:16:12.089Z,13244
2018-09-01T14:17:05.569Z,13228
2018-09-01T14:18:05.824Z,13160
2018-09-01T14:19:08.838Z,13064
2018-09-01T14:20:05.574Z,13016
2018-09-01T14:21:06.265Z,12940
2018-09-01T14:22:05.828Z,12816
2018-09-01T14:23:06.097Z,12736
2018-09-01T14:24:06.090Z,12704
2018-09-01T14:25:15.885Z,12676
2018-09-01T14:26:06.088Z,12612
2018-09-01T14:27:06.086Z,12516
2018-09-01T14:28:06.099Z,12336
2018-09-01T14:29:06.091Z,12128
2018-09-01T14:30:05.840Z,11888
2018-09-01T14:31:05.855Z,11780
2018-09-01T14:32:06.100Z,11796
2018-09-01T14:33:06.261Z,11868
2018-09-01T14:34:07.426Z,11888
2018-09-01T14:35:06.109Z,11860
2018-09-01T14:36:11.119Z,11828
2018-09-01T14:37:05.626Z,11808
2018-09-01T14:38:05.854Z,11780
2018-09-01T14:39:06.105Z,11820
2018-09-01T14:40:05.854Z,11876
2018-09-01T14:41:06.104Z,11940
2018-09-01T14:42:05.612Z,12012
2018-09-01T14:43:06.111Z,12016
2018-09-01T14:44:05.857Z,11976
2018-09-01T14:45:06.114Z,11964
2018-09-01T14:46:06.119Z,11912
2018-09-01T14:47:06.195Z,11836
2018-09-01T14:48:06.135Z,11752
2018-09-01T14:49:06.120Z,11664
2018-09-01T14:50:06.131Z,11624
2018-09-01T14:51:05.867Z,11620
2018-09-01T14:52:06.124Z,11612
2018-09-01T14:53:06.127Z,11560
2018-09-01T14:54:06.120Z,11468
2018-09-01T14:55:05.871Z,11340
2018-09-01T14:56:05.871Z,11220
2018-09-01T14:57:06.126Z,11048
2018-09-01T14:58:05.875Z,10936
2018-09-01T14:59:06.202Z,10788
2018-09-01T15:00:05.877Z,10720
2018-09-01T15:01:06.125Z,10732
2018-09-01T15:02:06.128Z,10788
2018-09-01T15:07:06.138Z,10504
2018-09-01T15:08:05.635Z,10452
2018-09-01T15:09:06.142Z,10392
2018-09-01T15:10:05.378Z,10312
2018-09-01T15:11:05.891Z,10256
2018-09-01T15:12:06.140Z,10212
2018-09-01T15:13:06.135Z,10180
2018-09-01T15:14:06.139Z,10136
2018-09-01T15:15:06.136Z,10048
2018-09-01T15:16:06.135Z,9988
2018-09-01T15:17:06.139Z,9980
2018-09-01T15:18:05.892Z,9960
2018-09-01T15:19:05.638Z,9900
2018-09-01T15:20:05.897Z,9820
2018-09-01T15:21:06.138Z,9728
2018-09-01T15:22:05.891Z,9680
2018-09-01T15:23:05.637Z,9668
2018-09-01T15:24:05.896Z,9636
2018-09-01T15:25:05.893Z,9484
2018-09-01T15:26:06.142Z,9364
2018-09-01T15:27:06.156Z,9364
2018-09-01T15:28:05.892Z,9452
2018-09-01T15:29:06.146Z,9608
2018-09-01T15:30:05.899Z,9804
2018-09-01T15:31:06.151Z,10028
2018-09-01T15:32:06.153Z,10160
2018-09-01T15:33:05.642Z,10272
2018-09-01T15:34:06.161Z,10344
2018-09-01T15:35:05.893Z,10256
2018-09-01T15:36:06.146Z,10176
2018-09-01T15:37:05.895Z,10164
2018-09-01T15:38:05.905Z,10160
2018-09-01T15:39:05.903Z,10200
2018-09-01T15:40:06.161Z,10280
2018-09-01T15:41:05.903Z,10436
2018-09-01T15:42:05.899Z,10648
2018-09-01T15:43:06.164Z,10844
2018-09-01T15:44:05.897Z,11036
2018-09-01T15:45:05.904Z,11200
2018-09-01T15:46:05.902Z,11336
2018-09-01T15:47:05.899Z,11412
2018-09-01T15:48:06.155Z,11488
2018-09-01T15:49:06.167Z,11512
2018-09-01T15:50:05.900Z,11412
2018-09-01T15:51:06.151Z,11248
2018-09-01T15:52:06.149Z,11040
2018-09-01T15:53:06.165Z,10808
2018-09-01T15:54:05.887Z,10608
2018-09-01T15:55:06.158Z,10552